Terminal Aerodrome Forecast
Issued by NWS Cleveland, OH

Home | Current Version | Previous Version | Graphics & Text | Print | Product List | Glossary On
Versions: 1 2 3 4 5 6 7 8 9 10 11 12 13 14 15 16 17 18 19 20 21 22 23 24 25 26 27 28 29 30 31 32 33
000
FTUS41 KCLE 181940 AAA
TAFTOL
TAF AMD
KTOL 181940Z 1820/1918 35004KT P6SM VCSH SCT025 BKN035
      TEMPO 1820/1823 BKN025
     FM190000 03006KT P6SM SCT025 BKN050
     FM191100 05005KT 3SM BR BKN015 OVC035
     FM191400 06005KT P6SM SCT025 BKN035=

USA.gov is the U.S. government's official web portal to all federal, state and local government web resources and services.